sensor_id;sensor_type;location;lat;lon;timestamp;temperature;humidity
2851;DHT22;1433;49.976;8.342;2022-08-19T00:00:21;21.80;99.90
2851;DHT22;1433;49.976;8.342;2022-08-19T00:02:47;21.80;99.90
2851;DHT22;1433;49.976;8.342;2022-08-19T00:05:14;21.80;99.90
2851;DHT22;1433;49.976;8.342;2022-08-19T00:07:42;21.80;99.90
2851;DHT22;1433;49.976;8.342;2022-08-19T00:10:09;21.80;99.90
2851;DHT22;1433;49.976;8.342;2022-08-19T00:12:36;21.80;99.90
2851;DHT22;1433;49.976;8.342;2022-08-19T00:15:05;21.80;99.90
2851;DHT22;1433;49.976;8.342;2022-08-19T00:17:32;21.80;99.90
2851;DHT22;1433;49.976;8.342;2022-08-19T00:19:58;21.80;99.90
2851;DHT22;1433;49.976;8.342;2022-08-19T00:22:24;21.80;99.90
2851;DHT22;1433;49.976;8.342;2022-08-19T00:24:52;21.80;99.90
2851;DHT22;1433;49.976;8.342;2022-08-19T00:27:18;21.70;99.90
2851;DHT22;1433;49.976;8.342;2022-08-19T00:29:44;21.70;99.90
2851;DHT22;1433;49.976;8.342;2022-08-19T00:32:10;21.70;99.90
2851;DHT22;1433;49.976;8.342;2022-08-19T00:34:37;21.70;99.90
2851;DHT22;1433;49.976;8.342;2022-08-19T00:37:04;21.70;99.90
2851;DHT22;1433;49.976;8.342;2022-08-19T00:39:30;21.70;99.90
2851;DHT22;1433;49.976;8.342;2022-08-19T00:41:56;21.70;99.90
2851;DHT22;1433;49.976;8.342;2022-08-19T00:44:26;21.70;99.90
2851;DHT22;1433;49.976;8.342;2022-08-19T00:46:54;21.70;99.90
2851;DHT22;1433;49.976;8.342;2022-08-19T00:52:04;21.70;99.90
2851;DHT22;1433;49.976;8.342;2022-08-19T00:54:27;21.70;99.90
2851;DHT22;1433;49.976;8.342;2022-08-19T00:56:54;21.70;99.90
2851;DHT22;1433;49.976;8.342;2022-08-19T00:59:20;21.70;99.90
2851;DHT22;1433;49.976;8.342;2022-08-19T01:01:46;21.60;99.90
2851;DHT22;1433;49.976;8.342;2022-08-19T01:04:13;21.60;99.90
2851;DHT22;1433;49.976;8.342;2022-08-19T01:06:40;21.60;99.90
2851;DHT22;1433;49.976;8.342;2022-08-19T01:09:08;21.60;99.90
2851;DHT22;1433;49.976;8.342;2022-08-19T01:11:39;21.60;99.90
2851;DHT22;1433;49.976;8.342;2022-08-19T01:14:07;21.60;99.90
2851;DHT22;1433;49.976;8.342;2022-08-19T01:16:34;21.50;99.90
2851;DHT22;1433;49.976;8.342;2022-08-19T01:19:02;21.50;99.90
2851;DHT22;1433;49.976;8.342;2022-08-19T01:21:42;21.50;99.90
2851;DHT22;1433;49.976;8.342;2022-08-19T01:24:05;21.50;99.90
2851;DHT22;1433;49.976;8.342;2022-08-19T01:26:31;21.50;99.90
2851;DHT22;1433;49.976;8.342;2022-08-19T01:28:58;21.50;99.90
2851;DHT22;1433;49.976;8.342;2022-08-19T01:31:28;21.50;99.90
2851;DHT22;1433;49.976;8.342;2022-08-19T01:33:57;21.50;99.90
2851;DHT22;1433;49.976;8.342;2022-08-19T01:38:57;21.40;99.90
2851;DHT22;1433;49.976;8.342;2022-08-19T01:41:24;21.40;99.90
2851;DHT22;1433;49.976;8.342;2022-08-19T01:43:52;21.40;99.90
2851;DHT22;1433;49.976;8.342;2022-08-19T01:46:18;21.40;99.90
2851;DHT22;1433;49.976;8.342;2022-08-19T01:48:45;21.40;99.90
2851;DHT22;1433;49.976;8.342;2022-08-19T01:51:13;21.40;99.90
2851;DHT22;1433;49.976;8.342;2022-08-19T01:53:39;21.40;99.90
2851;DHT22;1433;49.976;8.342;2022-08-19T01:56:07;21.40;99.90
2851;DHT22;1433;49.976;8.342;2022-08-19T01:58:39;21.50;99.90
2851;DHT22;1433;49.976;8.342;2022-08-19T02:01:05;21.50;99.90
2851;DHT22;1433;49.976;8.342;2022-08-19T02:03:32;21.50;99.90
2851;DHT22;1433;49.976;8.342;2022-08-19T02:06:00;21.50;99.90
2851;DHT22;1433;49.976;8.342;2022-08-19T02:08:27;21.50;99.90
2851;DHT22;1433;49.976;8.342;2022-08-19T02:10:53;21.50;99.90
2851;DHT22;1433;49.976;8.342;2022-08-19T02:13:20;21.50;99.90
2851;DHT22;1433;49.976;8.342;2022-08-19T02:15:46;21.50;99.90
2851;DHT22;1433;49.976;8.342;2022-08-19T02:18:12;21.50;99.90
2851;DHT22;1433;49.976;8.342;2022-08-19T02:20:41;21.50;99.90
2851;DHT22;1433;49.976;8.342;2022-08-19T02:23:08;21.50;99.90
2851;DHT22;1433;49.976;8.342;2022-08-19T02:25:34;21.50;99.90
2851;DHT22;1433;49.976;8.342;2022-08-19T02:28:00;21.50;99.90
2851;DHT22;1433;49.976;8.342;2022-08-19T02:30:27;21.50;99.90
2851;DHT22;1433;49.976;8.342;2022-08-19T02:32:54;21.50;99.90
2851;DHT22;1433;49.976;8.342;2022-08-19T02:35:20;21.50;99.90
2851;DHT22;1433;49.976;8.342;2022-08-19T02:37:47;21.50;99.90
2851;DHT22;1433;49.976;8.342;2022-08-19T02:40:32;21.50;99.90
2851;DHT22;1433;49.976;8.342;2022-08-19T02:43:01;21.50;99.90
2851;DHT22;1433;49.976;8.342;2022-08-19T02:45:37;21.40;99.90
2851;DHT22;1433;49.976;8.342;2022-08-19T02:48:04;21.40;99.90
2851;DHT22;1433;49.976;8.342;2022-08-19T02:50:31;21.40;99.90
2851;DHT22;1433;49.976;8.342;2022-08-19T02:52:57;21.40;99.90
2851;DHT22;1433;49.976;8.342;2022-08-19T02:55:24;21.30;99.90
2851;DHT22;1433;49.976;8.342;2022-08-19T02:57:50;21.30;99.90
2851;DHT22;1433;49.976;8.342;2022-08-19T03:00:16;21.20;99.90
2851;DHT22;1433;49.976;8.342;2022-08-19T03:02:42;21.20;99.90
2851;DHT22;1433;49.976;8.342;2022-08-19T03:05:09;21.20;99.90
2851;DHT22;1433;49.976;8.342;2022-08-19T03:07:36;21.10;99.90
2851;DHT22;1433;49.976;8.342;2022-08-19T03:10:04;21.10;99.90
2851;DHT22;1433;49.976;8.342;2022-08-19T03:12:30;21.10;99.90
2851;DHT22;1433;49.976;8.342;2022-08-19T03:14:56;21.10;99.90
2851;DHT22;1433;49.976;8.342;2022-08-19T03:17:22;21.10;99.90
2851;DHT22;1433;49.976;8.342;2022-08-19T03:19:49;21.10;99.90
2851;DHT22;1433;49.976;8.342;2022-08-19T03:22:15;21.10;99.90
2851;DHT22;1433;49.976;8.342;2022-08-19T03:24:41;21.10;99.90
2851;DHT22;1433;49.976;8.342;2022-08-19T03:27:07;21.00;99.90
2851;DHT22;1433;49.976;8.342;2022-08-19T03:29:36;21.00;99.90
2851;DHT22;1433;49.976;8.342;2022-08-19T03:32:04;21.00;99.90
2851;DHT22;1433;49.976;8.342;2022-08-19T03:34:31;20.90;99.90
2851;DHT22;1433;49.976;8.342;2022-08-19T03:37:02;20.90;99.90
2851;DHT22;1433;49.976;8.342;2022-08-19T03:39:27;20.80;99.90
2851;DHT22;1433;49.976;8.342;2022-08-19T03:41:54;20.80;99.90
2851;DHT22;1433;49.976;8.342;2022-08-19T03:44:22;20.80;99.90
2851;DHT22;1433;49.976;8.342;2022-08-19T03:46:53;20.70;99.90
2851;DHT22;1433;49.976;8.342;2022-08-19T03:49:22;20.70;99.90
2851;DHT22;1433;49.976;8.342;2022-08-19T03:51:49;20.70;99.90
2851;DHT22;1433;49.976;8.342;2022-08-19T03:54:18;20.60;99.90
2851;DHT22;1433;49.976;8.342;2022-08-19T03:56:47;20.60;99.90
2851;DHT22;1433;49.976;8.342;2022-08-19T03:59:18;20.60;99.90
2851;DHT22;1433;49.976;8.342;2022-08-19T04:01:44;20.50;99.90
2851;DHT22;1433;49.976;8.342;2022-08-19T04:04:10;20.50;99.90
2851;DHT22;1433;49.976;8.342;2022-08-19T04:06:37;20.50;99.90
2851;DHT22;1433;49.976;8.342;2022-08-19T04:09:06;20.40;99.90
2851;DHT22;1433;49.976;8.342;2022-08-19T04:11:36;20.30;99.90
2851;DHT22;1433;49.976;8.342;2022-08-19T04:14:04;20.30;99.90
2851;DHT22;1433;49.976;8.342;2022-08-19T04:16:30;20.20;99.90
2851;DHT22;1433;49.976;8.342;2022-08-19T04:19:03;20.20;99.90
2851;DHT22;1433;49.976;8.342;2022-08-19T04:21:29;20.20;99.90
2851;DHT22;1433;49.976;8.342;2022-08-19T04:23:56;20.10;99.90
2851;DHT22;1433;49.976;8.342;2022-08-19T04:26:30;20.20;99.90
2851;DHT22;1433;49.976;8.342;2022-08-19T04:28:53;20.20;99.90
2851;DHT22;1433;49.976;8.342;2022-08-19T04:31:23;20.30;99.90
2851;DHT22;1433;49.976;8.342;2022-08-19T04:35:08;20.30;99.90
2851;DHT22;1433;49.976;8.342;2022-08-19T04:37:34;20.30;99.90
2851;DHT22;1433;49.976;8.342;2022-08-19T04:40:02;20.30;99.90
2851;DHT22;1433;49.976;8.342;2022-08-19T04:42:47;20.30;99.90
2851;DHT22;1433;49.976;8.342;2022-08-19T04:45:14;20.20;99.90
2851;DHT22;1433;49.976;8.342;2022-08-19T04:47:42;20.20;99.90
2851;DHT22;1433;49.976;8.342;2022-08-19T04:50:09;20.30;99.90
2851;DHT22;1433;49.976;8.342;2022-08-19T04:52:38;20.30;99.90
2851;DHT22;1433;49.976;8.342;2022-08-19T04:55:06;20.30;99.90
2851;DHT22;1433;49.976;8.342;2022-08-19T04:57:33;20.30;99.90
2851;DHT22;1433;49.976;8.342;2022-08-19T04:59:59;20.40;99.90
2851;DHT22;1433;49.976;8.342;2022-08-19T05:02:25;20.40;99.90
2851;DHT22;1433;49.976;8.342;2022-08-19T05:04:58;20.50;99.90
2851;DHT22;1433;49.976;8.342;2022-08-19T05:07:26;20.50;99.90
2851;DHT22;1433;49.976;8.342;2022-08-19T05:09:53;20.60;99.90
2851;DHT22;1433;49.976;8.342;2022-08-19T05:12:19;20.70;99.90
2851;DHT22;1433;49.976;8.342;2022-08-19T05:14:46;20.70;99.90
2851;DHT22;1433;49.976;8.342;2022-08-19T05:17:13;20.80;99.90
2851;DHT22;1433;49.976;8.342;2022-08-19T05:19:39;20.70;99.90
2851;DHT22;1433;49.976;8.342;2022-08-19T05:22:24;20.80;99.90
2851;DHT22;1433;49.976;8.342;2022-08-19T05:25:08;20.80;99.90
2851;DHT22;1433;49.976;8.342;2022-08-19T05:27:31;20.90;99.90
2851;DHT22;1433;49.976;8.342;2022-08-19T05:29:58;20.80;99.90
2851;DHT22;1433;49.976;8.342;2022-08-19T05:32:25;20.80;99.90
2851;DHT22;1433;49.976;8.342;2022-08-19T05:34:51;20.80;99.90
2851;DHT22;1433;49.976;8.342;2022-08-19T05:37:17;20.90;99.90
2851;DHT22;1433;49.976;8.342;2022-08-19T05:39:43;20.90;99.90
2851;DHT22;1433;49.976;8.342;2022-08-19T05:42:11;20.90;99.90
2851;DHT22;1433;49.976;8.342;2022-08-19T05:44:40;21.00;99.90
2851;DHT22;1433;49.976;8.342;2022-08-19T05:47:08;21.00;99.90
2851;DHT22;1433;49.976;8.342;2022-08-19T05:49:35;21.00;99.90
2851;DHT22;1433;49.976;8.342;2022-08-19T05:52:08;21.00;99.90
2851;DHT22;1433;49.976;8.342;2022-08-19T05:54:34;21.10;99.90
2851;DHT22;1433;49.976;8.342;2022-08-19T05:57:03;21.00;99.90
2851;DHT22;1433;49.976;8.342;2022-08-19T05:59:30;21.10;99.90
2851;DHT22;1433;49.976;8.342;2022-08-19T06:01:56;21.10;99.90
2851;DHT22;1433;49.976;8.342;2022-08-19T06:04:23;21.10;99.90
2851;DHT22;1433;49.976;8.342;2022-08-19T06:06:51;21.20;99.90
2851;DHT22;1433;49.976;8.342;2022-08-19T06:09:19;21.30;99.90
2851;DHT22;1433;49.976;8.342;2022-08-19T06:11:54;21.40;99.90
2851;DHT22;1433;49.976;8.342;2022-08-19T06:14:23;21.40;99.90
2851;DHT22;1433;49.976;8.342;2022-08-19T06:16:50;21.50;99.90
2851;DHT22;1433;49.976;8.342;2022-08-19T06:19:21;21.50;99.90
2851;DHT22;1433;49.976;8.342;2022-08-19T06:21:49;21.60;99.90
2851;DHT22;1433;49.976;8.342;2022-08-19T06:24:19;21.60;99.90
2851;DHT22;1433;49.976;8.342;2022-08-19T06:26:48;21.70;99.90
2851;DHT22;1433;49.976;8.342;2022-08-19T06:29:16;21.70;99.90
2851;DHT22;1433;49.976;8.342;2022-08-19T06:31:45;21.80;99.90
2851;DHT22;1433;49.976;8.342;2022-08-19T06:34:12;21.80;99.90
2851;DHT22;1433;49.976;8.342;2022-08-19T06:36:41;21.80;99.90
2851;DHT22;1433;49.976;8.342;2022-08-19T06:39:17;21.80;99.90
2851;DHT22;1433;49.976;8.342;2022-08-19T06:41:44;21.80;99.90
2851;DHT22;1433;49.976;8.342;2022-08-19T06:44:13;21.70;99.90
2851;DHT22;1433;49.976;8.342;2022-08-19T06:46:41;21.80;99.90
2851;DHT22;1433;49.976;8.342;2022-08-19T06:49:07;21.70;99.90
2851;DHT22;1433;49.976;8.342;2022-08-19T06:51:35;21.80;99.90
2851;DHT22;1433;49.976;8.342;2022-08-19T06:54:02;21.80;99.90
2851;DHT22;1433;49.976;8.342;2022-08-19T06:56:30;21.80;99.90
2851;DHT22;1433;49.976;8.342;2022-08-19T06:59:08;21.90;99.90
2851;DHT22;1433;49.976;8.342;2022-08-19T07:01:41;22.00;99.90
2851;DHT22;1433;49.976;8.342;2022-08-19T07:04:06;22.10;99.90
2851;DHT22;1433;49.976;8.342;2022-08-19T07:06:35;22.20;99.90
2851;DHT22;1433;49.976;8.342;2022-08-19T07:09:06;22.30;99.90
2851;DHT22;1433;49.976;8.342;2022-08-19T07:11:32;22.30;99.90
2851;DHT22;1433;49.976;8.342;2022-08-19T07:13:59;22.50;99.90
2851;DHT22;1433;49.976;8.342;2022-08-19T07:16:26;22.60;99.90
2851;DHT22;1433;49.976;8.342;2022-08-19T07:18:53;22.70;99.90
2851;DHT22;1433;49.976;8.342;2022-08-19T07:21:23;22.80;99.90
2851;DHT22;1433;49.976;8.342;2022-08-19T07:23:50;22.80;99.90
2851;DHT22;1433;49.976;8.342;2022-08-19T07:26:21;23.00;99.90
2851;DHT22;1433;49.976;8.342;2022-08-19T07:28:48;23.00;99.90
2851;DHT22;1433;49.976;8.342;2022-08-19T07:31:17;23.10;99.90
2851;DHT22;1433;49.976;8.342;2022-08-19T07:33:46;23.10;99.90
2851;DHT22;1433;49.976;8.342;2022-08-19T07:36:15;23.10;99.90
2851;DHT22;1433;49.976;8.342;2022-08-19T07:38:44;23.20;99.90
2851;DHT22;1433;49.976;8.342;2022-08-19T07:41:12;23.30;99.90
2851;DHT22;1433;49.976;8.342;2022-08-19T07:43:39;23.50;99.90
2851;DHT22;1433;49.976;8.342;2022-08-19T07:46:06;23.50;99.90
2851;DHT22;1433;49.976;8.342;2022-08-19T07:48:32;23.50;99.90
2851;DHT22;1433;49.976;8.342;2022-08-19T07:51:01;23.40;99.90
2851;DHT22;1433;49.976;8.342;2022-08-19T07:53:29;23.40;99.90
2851;DHT22;1433;49.976;8.342;2022-08-19T07:55:55;23.50;99.90
2851;DHT22;1433;49.976;8.342;2022-08-19T07:58:24;23.60;99.90
2851;DHT22;1433;49.976;8.342;2022-08-19T08:00:50;23.60;99.90
2851;DHT22;1433;49.976;8.342;2022-08-19T08:03:19;23.60;99.90
2851;DHT22;1433;49.976;8.342;2022-08-19T08:05:46;23.80;99.90
2851;DHT22;1433;49.976;8.342;2022-08-19T08:08:31;23.80;99.90
2851;DHT22;1433;49.976;8.342;2022-08-19T08:11:18;23.90;99.90
2851;DHT22;1433;49.976;8.342;2022-08-19T08:13:46;23.90;99.90
2851;DHT22;1433;49.976;8.342;2022-08-19T08:16:12;23.90;99.90
2851;DHT22;1433;49.976;8.342;2022-08-19T08:18:38;24.10;99.90
2851;DHT22;1433;49.976;8.342;2022-08-19T08:21:06;24.20;99.90
2851;DHT22;1433;49.976;8.342;2022-08-19T08:23:33;24.40;99.90
2851;DHT22;1433;49.976;8.342;2022-08-19T08:26:00;24.50;99.90
2851;DHT22;1433;49.976;8.342;2022-08-19T08:28:27;24.40;99.90
2851;DHT22;1433;49.976;8.342;2022-08-19T08:30:54;24.30;99.90
2851;DHT22;1433;49.976;8.342;2022-08-19T08:33:23;24.50;99.90
2851;DHT22;1433;49.976;8.342;2022-08-19T08:35:50;24.70;99.90
2851;DHT22;1433;49.976;8.342;2022-08-19T08:38:18;24.90;99.90
2851;DHT22;1433;49.976;8.342;2022-08-19T08:41:00;25.10;99.90
2851;DHT22;1433;49.976;8.342;2022-08-19T08:43:33;25.10;99.90
2851;DHT22;1433;49.976;8.342;2022-08-19T08:46:08;25.40;99.90
2851;DHT22;1433;49.976;8.342;2022-08-19T08:48:49;25.40;99.90
2851;DHT22;1433;49.976;8.342;2022-08-19T08:51:27;25.30;99.90
2851;DHT22;1433;49.976;8.342;2022-08-19T08:53:51;24.90;99.90
2851;DHT22;1433;49.976;8.342;2022-08-19T08:56:18;25.00;99.90
2851;DHT22;1433;49.976;8.342;2022-08-19T08:59:06;25.00;99.90
2851;DHT22;1433;49.976;8.342;2022-08-19T09:01:34;24.90;99.90
2851;DHT22;1433;49.976;8.342;2022-08-19T09:04:05;25.10;99.90
2851;DHT22;1433;49.976;8.342;2022-08-19T09:12:06;25.20;99.90
2851;DHT22;1433;49.976;8.342;2022-08-19T09:14:50;25.00;99.90
2851;DHT22;1433;49.976;8.342;2022-08-19T09:17:19;25.10;99.90
2851;DHT22;1433;49.976;8.342;2022-08-19T09:19:54;25.20;99.90
2851;DHT22;1433;49.976;8.342;2022-08-19T09:22:20;25.10;99.90
2851;DHT22;1433;49.976;8.342;2022-08-19T09:24:49;24.70;99.90
2851;DHT22;1433;49.976;8.342;2022-08-19T09:27:16;25.00;99.90
2851;DHT22;1433;49.976;8.342;2022-08-19T09:29:42;25.00;99.90
2851;DHT22;1433;49.976;8.342;2022-08-19T09:32:08;25.10;99.90
2851;DHT22;1433;49.976;8.342;2022-08-19T09:34:35;25.20;99.90
2851;DHT22;1433;49.976;8.342;2022-08-19T09:37:01;25.30;99.90
2851;DHT22;1433;49.976;8.342;2022-08-19T09:39:28;25.10;99.90
2851;DHT22;1433;49.976;8.342;2022-08-19T09:41:56;25.10;99.90
2851;DHT22;1433;49.976;8.342;2022-08-19T09:44:22;25.30;99.90
2851;DHT22;1433;49.976;8.342;2022-08-19T09:46:49;25.10;99.90
2851;DHT22;1433;49.976;8.342;2022-08-19T09:49:20;25.10;99.90
2851;DHT22;1433;49.976;8.342;2022-08-19T09:51:51;25.50;99.90
2851;DHT22;1433;49.976;8.342;2022-08-19T09:54:20;25.60;99.90
2851;DHT22;1433;49.976;8.342;2022-08-19T09:56:46;25.50;99.90
2851;DHT22;1433;49.976;8.342;2022-08-19T09:59:12;25.90;99.90
2851;DHT22;1433;49.976;8.342;2022-08-19T10:01:38;26.10;99.90
2851;DHT22;1433;49.976;8.342;2022-08-19T10:04:05;25.90;99.90
2851;DHT22;1433;49.976;8.342;2022-08-19T10:06:36;25.50;99.90
2851;DHT22;1433;49.976;8.342;2022-08-19T10:09:05;25.40;99.90
2851;DHT22;1433;49.976;8.342;2022-08-19T10:11:33;25.40;99.90
2851;DHT22;1433;49.976;8.342;2022-08-19T10:13:59;25.40;99.90
2851;DHT22;1433;49.976;8.342;2022-08-19T10:16:26;25.60;99.90
2851;DHT22;1433;49.976;8.342;2022-08-19T10:18:53;25.90;99.90
2851;DHT22;1433;49.976;8.342;2022-08-19T10:21:22;26.20;99.90
2851;DHT22;1433;49.976;8.342;2022-08-19T10:23:51;26.40;99.90
2851;DHT22;1433;49.976;8.342;2022-08-19T10:26:20;26.30;99.90
2851;DHT22;1433;49.976;8.342;2022-08-19T10:28:47;26.20;99.90
2851;DHT22;1433;49.976;8.342;2022-08-19T10:31:16;26.30;99.90
2851;DHT22;1433;49.976;8.342;2022-08-19T10:33:43;26.10;99.90
2851;DHT22;1433;49.976;8.342;2022-08-19T10:36:15;26.10;99.90
2851;DHT22;1433;49.976;8.342;2022-08-19T10:38:44;26.40;99.90
2851;DHT22;1433;49.976;8.342;2022-08-19T10:41:18;26.70;99.90
2851;DHT22;1433;49.976;8.342;2022-08-19T10:43:41;26.90;99.90
2851;DHT22;1433;49.976;8.342;2022-08-19T10:46:10;26.80;99.90
2851;DHT22;1433;49.976;8.342;2022-08-19T10:48:37;26.60;99.90
2851;DHT22;1433;49.976;8.342;2022-08-19T10:51:03;26.90;99.90
2851;DHT22;1433;49.976;8.342;2022-08-19T10:53:49;27.00;99.90
2851;DHT22;1433;49.976;8.342;2022-08-19T10:56:15;26.90;99.90
2851;DHT22;1433;49.976;8.342;2022-08-19T10:59:00;27.10;99.90
2851;DHT22;1433;49.976;8.342;2022-08-19T11:01:30;27.70;99.90
2851;DHT22;1433;49.976;8.342;2022-08-19T11:03:57;29.00;99.90
2851;DHT22;1433;49.976;8.342;2022-08-19T11:06:23;30.40;99.90
2851;DHT22;1433;49.976;8.342;2022-08-19T11:08:52;30.90;99.90
2851;DHT22;1433;49.976;8.342;2022-08-19T11:11:18;28.80;99.90
2851;DHT22;1433;49.976;8.342;2022-08-19T11:13:45;29.50;99.90
2851;DHT22;1433;49.976;8.342;2022-08-19T11:16:19;30.30;99.90
2851;DHT22;1433;49.976;8.342;2022-08-19T11:18:45;29.70;99.90
2851;DHT22;1433;49.976;8.342;2022-08-19T11:21:21;30.10;99.90
2851;DHT22;1433;49.976;8.342;2022-08-19T11:23:46;30.80;99.90
2851;DHT22;1433;49.976;8.342;2022-08-19T11:26:14;31.00;99.90
2851;DHT22;1433;49.976;8.342;2022-08-19T11:28:41;30.50;99.90
2851;DHT22;1433;49.976;8.342;2022-08-19T11:31:16;30.90;99.90
2851;DHT22;1433;49.976;8.342;2022-08-19T11:33:43;30.70;99.90
2851;DHT22;1433;49.976;8.342;2022-08-19T11:36:09;30.40;99.90
2851;DHT22;1433;49.976;8.342;2022-08-19T11:38:36;31.90;99.90
2851;DHT22;1433;49.976;8.342;2022-08-19T11:41:06;33.10;99.90
2851;DHT22;1433;49.976;8.342;2022-08-19T11:43:34;34.20;99.90
2851;DHT22;1433;49.976;8.342;2022-08-19T11:46:06;34.70;99.90
2851;DHT22;1433;49.976;8.342;2022-08-19T11:48:33;33.40;99.90
2851;DHT22;1433;49.976;8.342;2022-08-19T11:51:03;33.40;99.90
2851;DHT22;1433;49.976;8.342;2022-08-19T11:53:31;32.30;99.90
2851;DHT22;1433;49.976;8.342;2022-08-19T11:55:58;32.90;99.90
2851;DHT22;1433;49.976;8.342;2022-08-19T11:58:24;32.50;99.90
2851;DHT22;1433;49.976;8.342;2022-08-19T12:00:52;32.50;99.90
2851;DHT22;1433;49.976;8.342;2022-08-19T12:03:18;32.40;99.90
2851;DHT22;1433;49.976;8.342;2022-08-19T12:05:46;31.80;99.90
2851;DHT22;1433;49.976;8.342;2022-08-19T12:08:12;32.60;99.90
2851;DHT22;1433;49.976;8.342;2022-08-19T12:10:39;32.40;99.90
2851;DHT22;1433;49.976;8.342;2022-08-19T12:13:09;32.60;99.90
2851;DHT22;1433;49.976;8.342;2022-08-19T12:15:37;32.50;99.90
2851;DHT22;1433;49.976;8.342;2022-08-19T12:18:04;32.90;99.90
2851;DHT22;1433;49.976;8.342;2022-08-19T12:20:31;33.30;99.90
2851;DHT22;1433;49.976;8.342;2022-08-19T12:22:59;33.80;99.90
2851;DHT22;1433;49.976;8.342;2022-08-19T12:25:25;33.00;99.90
2851;DHT22;1433;49.976;8.342;2022-08-19T12:27:51;32.50;99.90
2851;DHT22;1433;49.976;8.342;2022-08-19T12:30:17;33.10;99.90
2851;DHT22;1433;49.976;8.342;2022-08-19T12:32:44;32.70;99.90
2851;DHT22;1433;49.976;8.342;2022-08-19T12:35:10;32.80;99.90
2851;DHT22;1433;49.976;8.342;2022-08-19T12:37:38;33.80;99.90
2851;DHT22;1433;49.976;8.342;2022-08-19T12:40:05;33.70;99.90
2851;DHT22;1433;49.976;8.342;2022-08-19T12:42:32;32.90;99.90
2851;DHT22;1433;49.976;8.342;2022-08-19T12:44:58;32.00;99.90
2851;DHT22;1433;49.976;8.342;2022-08-19T12:47:24;32.60;99.90
2851;DHT22;1433;49.976;8.342;2022-08-19T12:49:52;32.90;99.90
2851;DHT22;1433;49.976;8.342;2022-08-19T12:52:18;30.60;99.90
2851;DHT22;1433;49.976;8.342;2022-08-19T12:54:46;29.60;99.90
2851;DHT22;1433;49.976;8.342;2022-08-19T12:57:12;30.30;99.90
2851;DHT22;1433;49.976;8.342;2022-08-19T12:59:38;31.40;99.90
2851;DHT22;1433;49.976;8.342;2022-08-19T13:02:06;31.20;99.90
2851;DHT22;1433;49.976;8.342;2022-08-19T13:04:33;32.10;99.90
2851;DHT22;1433;49.976;8.342;2022-08-19T13:07:04;31.70;99.90
2851;DHT22;1433;49.976;8.342;2022-08-19T13:09:30;30.50;99.90
2851;DHT22;1433;49.976;8.342;2022-08-19T13:11:57;30.10;99.90
2851;DHT22;1433;49.976;8.342;2022-08-19T13:14:23;30.70;99.90
2851;DHT22;1433;49.976;8.342;2022-08-19T13:16:49;31.30;99.90
2851;DHT22;1433;49.976;8.342;2022-08-19T13:19:15;31.50;99.90
2851;DHT22;1433;49.976;8.342;2022-08-19T13:21:41;30.50;99.90
2851;DHT22;1433;49.976;8.342;2022-08-19T13:24:07;29.60;99.90
2851;DHT22;1433;49.976;8.342;2022-08-19T13:26:33;29.30;99.90
2851;DHT22;1433;49.976;8.342;2022-08-19T13:28:59;29.20;99.90
2851;DHT22;1433;49.976;8.342;2022-08-19T13:31:44;30.20;99.90
2851;DHT22;1433;49.976;8.342;2022-08-19T13:34:32;32.00;99.90
2851;DHT22;1433;49.976;8.342;2022-08-19T13:37:00;33.80;99.90
2851;DHT22;1433;49.976;8.342;2022-08-19T13:39:29;34.00;99.90
2851;DHT22;1433;49.976;8.342;2022-08-19T13:41:56;34.30;99.90
2851;DHT22;1433;49.976;8.342;2022-08-19T13:44:22;35.50;99.90
2851;DHT22;1433;49.976;8.342;2022-08-19T13:46:48;35.60;99.90
2851;DHT22;1433;49.976;8.342;2022-08-19T13:49:16;36.00;99.90
2851;DHT22;1433;49.976;8.342;2022-08-19T13:51:43;34.00;99.90
2851;DHT22;1433;49.976;8.342;2022-08-19T13:54:11;33.30;99.90
2851;DHT22;1433;49.976;8.342;2022-08-19T13:56:42;33.10;99.90
2851;DHT22;1433;49.976;8.342;2022-08-19T13:59:09;32.70;99.90
2851;DHT22;1433;49.976;8.342;2022-08-19T14:01:36;32.90;99.90
2851;DHT22;1433;49.976;8.342;2022-08-19T14:04:03;32.70;99.90
2851;DHT22;1433;49.976;8.342;2022-08-19T14:06:29;32.90;99.90
2851;DHT22;1433;49.976;8.342;2022-08-19T14:08:57;33.00;99.90
2851;DHT22;1433;49.976;8.342;2022-08-19T14:11:23;33.60;99.90
2851;DHT22;1433;49.976;8.342;2022-08-19T14:13:51;34.50;99.90
2851;DHT22;1433;49.976;8.342;2022-08-19T14:16:17;34.00;99.90
2851;DHT22;1433;49.976;8.342;2022-08-19T14:18:43;32.90;99.90
2851;DHT22;1433;49.976;8.342;2022-08-19T14:21:15;33.10;99.90
2851;DHT22;1433;49.976;8.342;2022-08-19T14:23:43;33.20;99.90
2851;DHT22;1433;49.976;8.342;2022-08-19T14:26:13;34.10;99.90
2851;DHT22;1433;49.976;8.342;2022-08-19T14:28:40;35.10;99.90
2851;DHT22;1433;49.976;8.342;2022-08-19T14:31:11;34.60;99.90
2851;DHT22;1433;49.976;8.342;2022-08-19T14:33:38;34.20;99.90
2851;DHT22;1433;49.976;8.342;2022-08-19T14:36:06;33.60;99.90
2851;DHT22;1433;49.976;8.342;2022-08-19T14:38:33;33.90;99.90
2851;DHT22;1433;49.976;8.342;2022-08-19T14:41:10;34.10;99.90
2851;DHT22;1433;49.976;8.342;2022-08-19T14:43:37;33.80;99.90
2851;DHT22;1433;49.976;8.342;2022-08-19T14:46:04;33.50;99.90
2851;DHT22;1433;49.976;8.342;2022-08-19T14:48:30;33.40;99.90
2851;DHT22;1433;49.976;8.342;2022-08-19T14:50:56;34.10;99.90
2851;DHT22;1433;49.976;8.342;2022-08-19T14:53:22;34.20;99.90
2851;DHT22;1433;49.976;8.342;2022-08-19T14:55:48;33.50;99.90
2851;DHT22;1433;49.976;8.342;2022-08-19T14:58:15;33.70;99.90
2851;DHT22;1433;49.976;8.342;2022-08-19T15:00:41;33.20;99.90
2851;DHT22;1433;49.976;8.342;2022-08-19T15:03:07;33.80;99.90
2851;DHT22;1433;49.976;8.342;2022-08-19T15:05:33;32.60;99.90
2851;DHT22;1433;49.976;8.342;2022-08-19T15:08:04;32.10;99.90
2851;DHT22;1433;49.976;8.342;2022-08-19T15:10:30;31.90;99.90
2851;DHT22;1433;49.976;8.342;2022-08-19T15:12:57;31.50;99.90
2851;DHT22;1433;49.976;8.342;2022-08-19T15:15:23;32.10;99.90
2851;DHT22;1433;49.976;8.342;2022-08-19T15:17:49;32.50;99.90
2851;DHT22;1433;49.976;8.342;2022-08-19T15:20:18;32.20;99.90
2851;DHT22;1433;49.976;8.342;2022-08-19T15:22:45;32.30;99.90
2851;DHT22;1433;49.976;8.342;2022-08-19T15:25:13;31.80;99.90
2851;DHT22;1433;49.976;8.342;2022-08-19T15:27:40;32.40;99.90
2851;DHT22;1433;49.976;8.342;2022-08-19T15:30:08;32.60;99.90
2851;DHT22;1433;49.976;8.342;2022-08-19T15:32:34;32.50;99.90
2851;DHT22;1433;49.976;8.342;2022-08-19T15:35:02;31.50;99.90
2851;DHT22;1433;49.976;8.342;2022-08-19T15:37:29;31.60;99.90
2851;DHT22;1433;49.976;8.342;2022-08-19T15:39:55;31.70;99.90
2851;DHT22;1433;49.976;8.342;2022-08-19T15:42:21;32.10;99.90
2851;DHT22;1433;49.976;8.342;2022-08-19T15:44:47;31.80;99.90
2851;DHT22;1433;49.976;8.342;2022-08-19T15:47:13;32.00;99.90
2851;DHT22;1433;49.976;8.342;2022-08-19T15:49:40;32.20;99.90
2851;DHT22;1433;49.976;8.342;2022-08-19T15:52:06;32.00;99.90
2851;DHT22;1433;49.976;8.342;2022-08-19T15:54:33;31.70;99.90
2851;DHT22;1433;49.976;8.342;2022-08-19T15:56:59;32.00;99.90
2851;DHT22;1433;49.976;8.342;2022-08-19T15:59:44;32.30;99.90
2851;DHT22;1433;49.976;8.342;2022-08-19T16:02:30;31.80;99.90
2851;DHT22;1433;49.976;8.342;2022-08-19T16:05:22;31.60;99.90
2851;DHT22;1433;49.976;8.342;2022-08-19T16:08:04;31.70;99.90
2851;DHT22;1433;49.976;8.342;2022-08-19T16:10:30;32.20;99.90
2851;DHT22;1433;49.976;8.342;2022-08-19T16:12:57;32.40;99.90
2851;DHT22;1433;49.976;8.342;2022-08-19T16:15:28;31.80;99.90
2851;DHT22;1433;49.976;8.342;2022-08-19T16:17:56;31.30;99.90
2851;DHT22;1433;49.976;8.342;2022-08-19T16:20:23;31.60;99.90